Time;durP1;ratioP1;P1;durP2;ratioP2;P2;SDS_P1;SDS_P2;PMS_P1;PMS_P2;Temp;Humidity;BMP_temperature;BMP_pressure;BME280_temperature;BME280_humidity;BME280_pressure;Samples;Min_cycle;Max_cycle;Signal;HPM_P1;HPM_P2
2022/09/18 00:02:20;;;;;;;8.50;2.87;;;12.50;99.90;;;;;;5050213;28;20471;-58
2022/09/18 00:04:47;;;;;;;7.93;1.80;;;12.40;99.90;;;;;;5051194;28;20515;-59
2022/09/18 00:07:15;;;;;;;1.70;1.37;;;12.40;99.90;;;;;;5050979;28;20436;-56
2022/09/18 00:09:43;;;;;;;3.53;1.27;;;12.30;99.90;;;;;;5049858;28;20458;-55
2022/09/18 00:12:10;;;;;;;1.80;1.50;;;12.30;99.90;;;;;;5050498;28;20468;-58
2022/09/18 00:14:37;;;;;;;1.63;1.50;;;12.30;99.90;;;;;;5051244;28;20476;-54
2022/09/18 00:17:04;;;;;;;1.80;1.10;;;12.30;99.90;;;;;;5051421;28;20459;-53
2022/09/18 00:19:31;;;;;;;3.00;1.60;;;12.30;99.90;;;;;;5054071;28;20430;-55
2022/09/18 00:21:57;;;;;;;1.40;0.97;;;12.20;99.90;;;;;;5054970;28;20960;-55
2022/09/18 00:24:25;;;;;;;4.10;1.53;;;12.20;99.90;;;;;;5054358;28;20456;-57
2022/09/18 00:26:52;;;;;;;2.43;1.37;;;12.20;99.90;;;;;;5053628;28;20448;-57
2022/09/18 00:29:19;;;;;;;2.50;1.10;;;12.20;99.90;;;;;;5054046;28;20463;-55
2022/09/18 00:31:46;;;;;;;2.57;1.60;;;12.20;99.90;;;;;;5053390;28;20432;-55
2022/09/18 00:34:14;;;;;;;2.27;1.43;;;12.10;99.90;;;;;;5053178;28;20479;-56
2022/09/18 00:36:42;;;;;;;2.03;1.23;;;12.20;99.90;;;;;;5054278;28;20475;-53
2022/09/18 00:39:11;;;;;;;3.40;1.00;;;12.10;99.90;;;;;;5053903;28;20448;-55
2022/09/18 00:41:42;;;;;;;1.30;1.10;;;12.10;99.90;;;;;;5053340;28;20546;-57
2022/09/18 00:44:37;;;;;;;1.93;1.40;;;12.10;99.90;;;;;;5052419;28;20436;-59
2022/09/18 00:47:18;;;;;;;1.10;1.00;;;12.10;99.90;;;;;;5006992;28;20460;-57
2022/09/18 00:49:48;;;;;;;9.10;1.47;;;12.00;99.90;;;;;;5052507;28;20496;-54
2022/09/18 00:52:18;;;;;;;1.50;1.27;;;12.10;99.90;;;;;;5052270;28;20420;-55
2022/09/18 00:54:49;;;;;;;2.77;1.07;;;12.10;99.90;;;;;;5052410;28;20888;-55
2022/09/18 00:57:20;;;;;;;1.40;1.07;;;12.00;99.90;;;;;;5052022;28;20436;-59
2022/09/18 00:59:50;;;;;;;2.60;0.93;;;12.00;99.90;;;;;;5053066;28;20471;-54
2022/09/18 01:02:17;;;;;;;1.00;0.80;;;12.00;99.90;;;;;;5052051;28;20458;-54
2022/09/18 01:04:44;;;;;;;1.20;0.80;;;12.00;99.90;;;;;;5045579;28;20451;-53
2022/09/18 01:07:20;;;;;;;1.43;0.90;;;12.00;99.90;;;;;;5045705;28;20444;-54
2022/09/18 01:09:57;;;;;;;1.67;0.90;;;11.90;99.90;;;;;;5045411;28;20427;-54
2022/09/18 01:12:31;;;;;;;1.30;0.80;;;11.80;99.90;;;;;;5045601;28;20827;-50
2022/09/18 01:15:04;;;;;;;1.43;0.90;;;11.80;99.90;;;;;;5044938;28;20471;-54
2022/09/18 01:17:37;;;;;;;2.63;1.00;;;11.80;99.90;;;;;;5045768;28;20452;-51
2022/09/18 01:20:35;;;;;;;1.13;0.80;;;11.70;99.90;;;;;;5046468;28;20437;-50
2022/09/18 01:23:33;;;;;;;1.33;0.93;;;11.70;99.90;;;;;;5046756;28;20444;-51
2022/09/18 01:26:15;;;;;;;1.00;0.70;;;11.70;99.90;;;;;;5047814;28;20420;-55
2022/09/18 01:28:48;;;;;;;1.10;0.80;;;11.60;99.90;;;;;;5046322;28;20424;-52
2022/09/18 01:31:19;;;;;;;1.00;0.73;;;11.60;99.90;;;;;;5044105;28;20468;-55
2022/09/18 01:33:51;;;;;;;1.27;1.00;;;11.60;99.90;;;;;;5044742;28;20441;-52
2022/09/18 01:36:22;;;;;;;1.30;0.80;;;11.60;99.90;;;;;;5045489;28;20503;-54
2022/09/18 01:38:52;;;;;;;1.13;0.80;;;11.50;99.90;;;;;;5045784;28;20887;-53
2022/09/18 01:41:22;;;;;;;1.97;0.90;;;11.50;99.90;;;;;;5046017;28;20428;-54
2022/09/18 01:43:56;;;;;;;1.00;0.60;;;11.50;99.90;;;;;;5045368;28;20428;-53
2022/09/18 01:46:24;;;;;;;1.10;0.80;;;11.50;99.90;;;;;;5045381;28;20438;-52
2022/09/18 01:48:56;;;;;;;1.10;0.77;;;11.50;99.90;;;;;;5046212;28;20784;-55
2022/09/18 01:51:26;;;;;;;1.80;0.90;;;11.60;99.90;;;;;;5049275;28;20435;-55
2022/09/18 01:53:58;;;;;;;1.20;0.80;;;11.50;99.90;;;;;;5046508;28;20815;-52
2022/09/18 01:56:28;;;;;;;1.53;0.70;;;11.50;99.90;;;;;;5046175;28;20491;-50
2022/09/18 01:58:59;;;;;;;1.20;0.90;;;11.50;99.90;;;;;;5045373;28;20787;-55
2022/09/18 02:01:28;;;;;;;1.57;0.90;;;11.50;99.90;;;;;;5045487;28;20472;-55
2022/09/18 02:03:59;;;;;;;1.30;0.80;;;11.50;99.90;;;;;;5045545;28;20436;-52
2022/09/18 02:06:29;;;;;;;2.13;0.80;;;11.40;99.90;;;;;;5044968;28;20472;-53
2022/09/18 02:08:59;;;;;;;1.30;0.70;;;11.40;99.90;;;;;;5045066;28;20440;-50
2022/09/18 02:11:25;;;;;;;1.30;1.00;;;11.40;99.90;;;;;;5045449;28;20859;-54
2022/09/18 02:13:59;;;;;;;2.00;1.10;;;11.40;99.90;;;;;;5045542;28;20448;-53
2022/09/18 02:16:30;;;;;;;1.77;0.97;;;11.40;99.90;;;;;;5044963;28;20791;-53
2022/09/18 02:19:04;;;;;;;1.10;0.80;;;11.40;99.90;;;;;;5044100;28;20501;-55
2022/09/18 02:21:32;;;;;;;1.00;0.70;;;11.50;99.90;;;;;;5045994;28;20440;-53
2022/09/18 02:24:03;;;;;;;1.10;0.70;;;11.40;99.90;;;;;;5045246;28;20471;-53
2022/09/18 02:26:32;;;;;;;1.10;0.90;;;11.40;99.90;;;;;;5045084;28;20427;-55
2022/09/18 02:29:02;;;;;;;1.93;1.07;;;11.50;99.90;;;;;;5044859;28;20451;-50
2022/09/18 02:31:28;;;;;;;1.30;0.70;;;11.40;99.90;;;;;;5044852;28;20776;-56
2022/09/18 02:33:55;;;;;;;1.47;0.90;;;11.40;99.90;;;;;;5045216;28;20527;-55
2022/09/18 02:36:40;;;;;;;1.60;1.00;;;11.40;99.90;;;;;;5045707;28;20537;-54
2022/09/18 02:39:30;;;;;;;1.10;0.73;;;11.40;99.90;;;;;;5045752;28;20451;-52
2022/09/18 02:42:09;;;;;;;1.10;0.90;;;11.40;99.90;;;;;;5045654;28;20432;-50
2022/09/18 02:44:45;;;;;;;1.30;0.87;;;11.30;99.90;;;;;;5049556;28;20452;-52
2022/09/18 02:47:23;;;;;;;2.20;0.70;;;11.30;99.90;;;;;;5046750;28;20785;-52
2022/09/18 02:50:03;;;;;;;1.77;1.30;;;11.30;99.90;;;;;;5045579;28;20535;-54
2022/09/18 02:52:34;;;;;;;5.43;1.57;;;11.30;99.90;;;;;;5046294;28;20450;-53
2022/09/18 02:55:12;;;;;;;2.90;1.27;;;11.30;99.90;;;;;;5046433;28;20498;-55
2022/09/18 02:57:46;;;;;;;2.60;1.37;;;11.40;99.90;;;;;;5045662;28;20443;-55
2022/09/18 03:00:18;;;;;;;5.07;1.17;;;11.30;99.90;;;;;;5045915;28;20438;-54
2022/09/18 03:02:51;;;;;;;1.40;1.20;;;11.40;99.90;;;;;;5045162;28;20433;-53
2022/09/18 03:05:18;;;;;;;7.60;1.37;;;11.30;99.90;;;;;;5045502;28;20446;-52
2022/09/18 03:07:45;;;;;;;3.67;1.40;;;11.30;99.90;;;;;;5045481;28;20483;-56
2022/09/18 03:10:12;;;;;;;4.50;1.57;;;11.30;99.90;;;;;;5045096;28;20444;-55
2022/09/18 03:12:38;;;;;;;3.27;1.50;;;11.30;99.90;;;;;;5044904;28;20454;-51
2022/09/18 03:15:06;;;;;;;6.03;1.67;;;11.30;99.90;;;;;;5045314;28;20866;-54
2022/09/18 03:17:35;;;;;;;3.70;1.77;;;11.30;99.90;;;;;;5045323;28;20555;-50
2022/09/18 03:20:02;;;;;;;2.53;1.57;;;11.30;99.90;;;;;;5045685;28;20464;-51
2022/09/18 03:22:29;;;;;;;6.20;2.10;;;11.30;99.90;;;;;;5045975;28;20506;-51
2022/09/18 03:24:56;;;;;;;5.33;1.67;;;11.30;99.90;;;;;;5044953;28;20451;-52
2022/09/18 03:27:22;;;;;;;4.17;1.60;;;11.30;99.90;;;;;;5045134;28;20444;-54
2022/09/18 03:29:49;;;;;;;4.93;1.70;;;11.30;99.90;;;;;;5045711;28;20461;-52
2022/09/18 03:32:16;;;;;;;6.87;1.60;;;11.20;99.90;;;;;;5045198;28;20536;-51
2022/09/18 03:34:44;;;;;;;8.13;2.00;;;11.20;99.90;;;;;;5044323;28;20456;-54
2022/09/18 03:37:11;;;;;;;9.23;1.50;;;11.20;99.90;;;;;;5044736;28;20470;-53
2022/09/18 03:39:38;;;;;;;2.43;1.17;;;11.30;99.90;;;;;;5044499;28;20542;-51
2022/09/18 03:42:05;;;;;;;3.40;1.60;;;11.30;99.90;;;;;;5044693;28;20444;-59
2022/09/18 03:44:31;;;;;;;6.23;1.33;;;11.30;99.90;;;;;;5045944;28;20471;-53
2022/09/18 03:46:58;;;;;;;8.97;2.27;;;11.30;99.90;;;;;;5046634;28;20464;-52
2022/09/18 03:49:25;;;;;;;3.43;1.43;;;11.30;99.90;;;;;;5044354;28;20456;-53
2022/09/18 03:51:53;;;;;;;4.00;1.90;;;11.30;99.90;;;;;;5044822;28;20409;-53
2022/09/18 03:54:20;;;;;;;6.43;1.50;;;11.30;99.90;;;;;;5047249;28;20444;-52
2022/09/18 03:56:47;;;;;;;2.90;1.43;;;11.30;99.90;;;;;;5049110;28;20505;-53
2022/09/18 03:59:15;;;;;;;4.27;1.53;;;11.30;99.90;;;;;;5051305;28;20458;-58
2022/09/18 04:01:44;;;;;;;3.70;1.43;;;11.20;99.90;;;;;;5051651;28;20482;-55
2022/09/18 04:04:12;;;;;;;6.30;1.77;;;11.20;99.90;;;;;;5050846;28;20432;-54
2022/09/18 04:06:38;;;;;;;11.53;1.97;;;11.20;99.90;;;;;;5050001;28;20448;-55
2022/09/18 04:09:07;;;;;;;8.17;2.10;;;11.10;99.90;;;;;;5049901;28;21032;-53
2022/09/18 04:11:33;;;;;;;9.00;1.80;;;11.10;99.90;;;;;;5049590;28;20454;-50
2022/09/18 04:14:00;;;;;;;5.33;1.93;;;11.10;99.90;;;;;;5049528;28;20463;-51
2022/09/18 04:16:27;;;;;;;4.43;1.90;;;11.10;99.90;;;;;;5050668;28;20464;-55
2022/09/18 04:18:54;;;;;;;3.30;2.10;;;11.10;99.90;;;;;;5050618;28;20448;-53
2022/09/18 04:21:21;;;;;;;8.00;1.80;;;11.10;99.90;;;;;;5049167;28;20567;-54
2022/09/18 04:23:49;;;;;;;7.20;2.40;;;11.10;99.90;;;;;;5049698;28;20471;-53
2022/09/18 04:26:17;;;;;;;4.53;2.40;;;11.00;99.90;;;;;;5043141;28;20884;-53
2022/09/18 04:28:43;;;;;;;5.10;2.40;;;11.00;99.90;;;;;;5036972;28;20515;-56
2022/09/18 04:31:10;;;;;;;6.03;3.13;;;11.10;99.90;;;;;;5028585;28;20433;-52
2022/09/18 04:33:37;;;;;;;8.03;2.30;;;11.00;99.90;;;;;;5028625;28;20452;-54
2022/09/18 04:36:04;;;;;;;4.83;2.40;;;11.00;99.90;;;;;;5029486;28;20477;-48
2022/09/18 04:38:31;;;;;;;11.90;2.60;;;11.00;99.90;;;;;;5030101;28;20769;-52
2022/09/18 04:40:58;;;;;;;3.33;1.43;;;10.90;99.90;;;;;;5030294;28;20444;-51
2022/09/18 04:43:28;;;;;;;9.00;2.00;;;10.90;99.90;;;;;;5029177;28;20728;-48
2022/09/18 04:45:55;;;;;;;2.70;1.40;;;10.90;99.90;;;;;;5029891;28;20537;-46
2022/09/18 04:48:22;;;;;;;7.30;2.10;;;10.90;99.90;;;;;;5030663;28;20448;-47
2022/09/18 04:50:50;;;;;;;6.93;2.00;;;10.90;99.90;;;;;;5031339;28;20465;-47
2022/09/18 04:53:17;;;;;;;4.70;2.37;;;10.90;99.90;;;;;;5029241;28;20455;-49
2022/09/18 04:55:45;;;;;;;6.07;2.00;;;10.80;99.90;;;;;;5029559;28;20511;-44
2022/09/18 04:58:12;;;;;;;6.50;2.20;;;10.80;99.90;;;;;;5038399;28;20464;-45
2022/09/18 05:00:40;;;;;;;6.53;2.20;;;10.80;99.90;;;;;;5043047;28;20436;-47
2022/09/18 05:03:08;;;;;;;9.43;2.13;;;10.80;99.90;;;;;;5041123;28;20457;-46
2022/09/18 05:05:35;;;;;;;2.93;1.30;;;10.80;99.90;;;;;;5038076;28;20433;-48
2022/09/18 05:08:03;;;;;;;2.10;1.87;;;10.80;99.90;;;;;;5039423;28;20436;-45
2022/09/18 05:10:30;;;;;;;3.53;1.80;;;10.90;99.90;;;;;;5041322;28;20940;-45
2022/09/18 05:12:57;;;;;;;5.77;1.63;;;10.80;99.90;;;;;;5040038;28;20441;-46
2022/09/18 05:15:24;;;;;;;5.23;1.50;;;10.80;99.90;;;;;;5039358;28;20989;-48
2022/09/18 05:18:00;;;;;;;3.87;1.67;;;10.70;99.90;;;;;;5039374;28;20444;-44
2022/09/18 05:20:27;;;;;;;3.87;1.30;;;10.70;99.90;;;;;;5039792;28;20436;-46
2022/09/18 05:22:54;;;;;;;3.73;1.33;;;10.70;99.90;;;;;;5031777;28;20495;-46
2022/09/18 05:25:22;;;;;;;11.10;3.47;;;10.70;99.90;;;;;;5030797;28;20437;-44
2022/09/18 05:27:54;;;;;;;7.10;1.70;;;10.70;99.90;;;;;;5030350;28;20509;-49
2022/09/18 05:30:21;;;;;;;3.90;1.70;;;10.70;99.90;;;;;;5030701;28;20425;-47
2022/09/18 05:32:54;;;;;;;3.53;1.63;;;10.70;99.90;;;;;;5028849;28;20507;-45
2022/09/18 05:35:22;;;;;;;5.57;1.23;;;10.80;99.90;;;;;;5029102;28;20891;-42
2022/09/18 05:37:50;;;;;;;2.53;1.30;;;10.80;99.90;;;;;;5030121;28;20444;-47
2022/09/18 05:40:17;;;;;;;5.43;1.97;;;10.80;99.90;;;;;;5030564;28;20473;-47
2022/09/18 05:42:47;;;;;;;3.80;1.43;;;10.70;99.90;;;;;;5030337;28;20499;-49
2022/09/18 05:45:15;;;;;;;4.30;1.60;;;10.70;99.90;;;;;;5029980;28;20476;-50
2022/09/18 05:47:42;;;;;;;3.40;1.70;;;10.70;99.90;;;;;;5028720;28;20517;-44
2022/09/18 05:50:13;;;;;;;3.83;1.20;;;10.70;99.90;;;;;;5028839;28;20512;-45
2022/09/18 05:52:41;;;;;;;7.60;2.03;;;10.70;99.90;;;;;;5029321;28;20432;-45
2022/09/18 05:55:08;;;;;;;2.80;1.37;;;10.70;99.90;;;;;;5030499;28;20441;-44
2022/09/18 05:57:35;;;;;;;4.43;1.50;;;10.60;99.90;;;;;;5029825;28;20493;-46
2022/09/18 06:00:02;;;;;;;3.60;1.53;;;10.60;99.90;;;;;;5031771;28;20524;-46
2022/09/18 06:02:29;;;;;;;2.90;1.30;;;10.60;99.90;;;;;;5032232;28;20457;-47
2022/09/18 06:04:56;;;;;;;6.83;1.63;;;10.50;99.90;;;;;;5032109;28;20445;-43
2022/09/18 06:07:27;;;;;;;8.83;1.30;;;10.50;99.90;;;;;;5031640;28;20443;-45
2022/09/18 06:09:55;;;;;;;4.17;1.30;;;10.50;99.90;;;;;;5030643;28;20477;-47
2022/09/18 06:12:22;;;;;;;9.60;1.60;;;10.50;99.90;;;;;;5033671;28;20449;-46
2022/09/18 06:14:49;;;;;;;3.23;1.30;;;10.60;99.90;;;;;;5036311;28;20472;-49
2022/09/18 06:17:15;;;;;;;5.80;2.30;;;10.50;99.90;;;;;;5038202;28;20499;-50
2022/09/18 06:19:42;;;;;;;3.87;1.30;;;10.50;99.90;;;;;;5033091;28;20448;-48
2022/09/18 06:22:09;;;;;;;8.10;1.30;;;10.50;99.90;;;;;;5035103;28;20459;-46
2022/09/18 06:24:36;;;;;;;8.10;1.93;;;10.60;99.90;;;;;;5027923;28;20523;-49
2022/09/18 06:27:05;;;;;;;4.73;1.63;;;10.60;99.90;;;;;;5036415;28;20447;-44
2022/09/18 06:29:32;;;;;;;5.23;1.23;;;10.50;99.90;;;;;;5037749;28;20436;-42
2022/09/18 06:31:59;;;;;;;5.43;1.10;;;10.50;99.90;;;;;;5028981;28;20536;-48
2022/09/18 06:34:26;;;;;;;8.77;1.97;;;10.60;99.90;;;;;;5032418;28;20547;-45
2022/09/18 06:36:52;;;;;;;8.50;1.93;;;10.60;99.90;;;;;;5031145;28;20496;-47
2022/09/18 06:39:19;;;;;;;9.70;1.40;;;10.60;99.90;;;;;;5029047;28;20523;-50
2022/09/18 06:41:46;;;;;;;11.63;1.17;;;10.60;99.90;;;;;;5028924;28;20449;-45
2022/09/18 06:44:14;;;;;;;5.07;1.23;;;10.60;99.90;;;;;;5033286;28;20464;-44
2022/09/18 06:46:41;;;;;;;9.83;1.87;;;10.70;99.90;;;;;;5039955;28;20464;-48
2022/09/18 06:49:12;;;;;;;5.13;1.20;;;10.80;99.90;;;;;;5041918;28;20823;-49
2022/09/18 06:51:39;;;;;;;5.07;1.40;;;10.90;99.90;;;;;;5040158;28;20535;-45
2022/09/18 06:54:07;;;;;;;2.10;0.90;;;11.00;99.90;;;;;;5038817;28;20490;-43
2022/09/18 06:56:34;;;;;;;6.33;1.43;;;11.00;99.90;;;;;;5041226;28;20476;-42
2022/09/18 06:59:00;;;;;;;10.07;1.83;;;11.00;99.90;;;;;;5047007;28;20481;-45
2022/09/18 07:01:29;;;;;;;10.30;2.10;;;11.10;99.90;;;;;;5039343;28;20451;-49
2022/09/18 07:03:55;;;;;;;3.10;1.20;;;11.10;99.90;;;;;;5037708;28;20928;-45
2022/09/18 07:06:22;;;;;;;10.03;1.93;;;11.10;99.90;;;;;;5033527;28;20461;-42
2022/09/18 07:08:49;;;;;;;2.50;1.30;;;11.10;99.90;;;;;;5041740;28;20523;-43
2022/09/18 07:11:18;;;;;;;2.70;1.07;;;11.10;99.90;;;;;;5036522;28;20464;-47
2022/09/18 07:13:46;;;;;;;6.30;1.17;;;11.20;99.90;;;;;;5030990;28;20441;-41
2022/09/18 07:16:13;;;;;;;5.20;1.30;;;11.30;99.90;;;;;;5031443;28;20485;-42
2022/09/18 07:18:42;;;;;;;3.23;1.10;;;11.30;99.90;;;;;;5049426;28;20532;-46
2022/09/18 07:21:09;;;;;;;3.23;1.27;;;11.30;99.90;;;;;;5052206;28;20514;-45
2022/09/18 07:23:36;;;;;;;3.20;1.30;;;11.40;99.90;;;;;;5051130;28;20452;-47
2022/09/18 07:26:06;;;;;;;3.53;1.00;;;11.50;99.90;;;;;;5039518;28;20429;-46
2022/09/18 07:28:33;;;;;;;6.03;1.33;;;11.50;99.90;;;;;;5036512;28;20510;-40
2022/09/18 07:31:04;;;;;;;4.10;1.00;;;11.50;99.90;;;;;;5036299;28;20445;-42
2022/09/18 07:33:31;;;;;;;5.93;1.27;;;11.50;99.90;;;;;;5037839;28;20463;-46
2022/09/18 07:36:04;;;;;;;9.83;1.83;;;11.60;99.90;;;;;;5039061;28;20453;-46
2022/09/18 07:38:33;;;;;;;2.27;1.30;;;11.70;99.90;;;;;;5019300;28;20472;-45
2022/09/18 07:41:02;;;;;;;3.97;0.97;;;11.70;99.90;;;;;;5019888;28;20429;-45
2022/09/18 07:43:29;;;;;;;10.53;1.40;;;11.70;99.90;;;;;;5021552;28;20468;-45
2022/09/18 07:45:56;;;;;;;1.27;0.83;;;11.80;99.90;;;;;;5026255;28;20465;-47
2022/09/18 07:48:24;;;;;;;6.40;1.57;;;11.80;99.90;;;;;;5036790;28;20460;-45
2022/09/18 07:50:51;;;;;;;2.70;1.57;;;11.90;99.90;;;;;;5040166;28;20464;-45
2022/09/18 07:53:20;;;;;;;2.13;1.00;;;12.00;99.90;;;;;;5033161;28;20476;-48
2022/09/18 07:55:47;;;;;;;4.20;2.13;;;12.10;99.90;;;;;;5037309;28;20469;-44
2022/09/18 07:58:16;;;;;;;2.60;1.00;;;12.20;99.90;;;;;;5021046;28;20473;-46
2022/09/18 08:00:43;;;;;;;4.03;1.10;;;12.20;99.90;;;;;;5021820;28;20849;-44
2022/09/18 08:03:12;;;;;;;3.77;1.23;;;12.30;99.90;;;;;;5020981;28;20449;-46
2022/09/18 08:05:40;;;;;;;6.00;1.43;;;12.40;99.90;;;;;;5030941;28;20468;-51
2022/09/18 08:08:11;;;;;;;7.40;3.53;;;12.50;99.90;;;;;;5037323;28;20439;-49
2022/09/18 08:10:42;;;;;;;5.77;1.67;;;12.60;99.90;;;;;;5032360;28;20452;-54
2022/09/18 08:13:08;;;;;;;4.13;1.30;;;12.60;99.90;;;;;;5035339;28;20519;-54
2022/09/18 08:15:38;;;;;;;4.83;1.10;;;12.70;99.90;;;;;;5024050;28;20460;-52
2022/09/18 08:18:06;;;;;;;4.60;1.40;;;13.10;99.90;;;;;;5027895;28;20496;-50
2022/09/18 08:20:33;;;;;;;3.50;1.20;;;14.10;99.90;;;;;;5034712;28;20448;-52
2022/09/18 08:23:02;;;;;;;7.10;1.57;;;14.40;99.90;;;;;;5027665;28;20774;-53
2022/09/18 08:25:29;;;;;;;2.10;1.40;;;14.20;99.90;;;;;;5025548;28;20429;-51
2022/09/18 08:28:00;;;;;;;5.27;2.00;;;14.10;99.90;;;;;;5026892;28;20437;-52
2022/09/18 08:30:28;;;;;;;4.40;1.73;;;14.10;99.90;;;;;;5021503;28;20890;-55
2022/09/18 08:32:58;;;;;;;3.87;1.57;;;14.60;99.90;;;;;;5030578;28;20440;-56
2022/09/18 08:35:25;;;;;;;2.60;1.00;;;15.10;99.90;;;;;;5029353;28;20465;-53
2022/09/18 08:37:51;;;;;;;2.40;1.33;;;15.10;99.90;;;;;;5015171;28;20511;-50
2022/09/18 08:40:22;;;;;;;4.03;1.20;;;15.10;99.90;;;;;;5026064;28;20542;-52
2022/09/18 08:43:06;;;;;;;4.20;1.10;;;15.60;99.90;;;;;;5039566;28;20730;-55
2022/09/18 08:45:47;;;;;;;5.07;1.20;;;16.10;99.90;;;;;;5018240;28;20425;-53
2022/09/18 08:48:18;;;;;;;2.10;1.07;;;16.90;99.90;;;;;;5037905;28;20462;-54
2022/09/18 08:50:54;;;;;;;6.77;1.97;;;17.20;99.90;;;;;;5037853;28;20444;-54
2022/09/18 08:53:27;;;;;;;3.93;1.13;;;16.80;99.90;;;;;;5038047;28;20438;-51
2022/09/18 08:55:55;;;;;;;2.07;1.33;;;16.30;99.90;;;;;;5026496;28;20437;-56
2022/09/18 08:58:29;;;;;;;9.97;1.40;;;16.20;99.90;;;;;;5018344;28;20496;-53
2022/09/18 09:01:00;;;;;;;2.33;1.07;;;16.10;99.90;;;;;;5018208;28;20437;-53
2022/09/18 09:03:37;;;;;;;3.83;1.40;;;15.80;99.90;;;;;;5029592;28;20475;-55
2022/09/18 09:06:13;;;;;;;7.50;2.20;;;16.00;99.90;;;;;;5037204;28;20416;-50
2022/09/18 09:09:03;;;;;;;4.33;1.80;;;16.40;99.90;;;;;;5030550;28;20555;-56
2022/09/18 09:11:38;;;;;;;7.10;1.50;;;16.30;99.90;;;;;;5020651;28;20445;-54
2022/09/18 09:14:20;;;;;;;2.90;1.60;;;15.80;99.90;;;;;;5018100;28;20472;-53
2022/09/18 09:16:51;;;;;;;2.53;1.30;;;15.50;99.90;;;;;;5019078;28;20453;-56
2022/09/18 09:19:30;;;;;;;4.90;1.30;;;15.30;99.90;;;;;;5020493;28;20480;-57
2022/09/18 09:22:06;;;;;;;5.83;1.63;;;15.00;99.90;;;;;;5018761;28;20441;-57
2022/09/18 09:24:34;;;;;;;8.93;1.40;;;15.40;99.90;;;;;;5020752;28;20437;-58
2022/09/18 09:27:13;;;;;;;2.40;1.00;;;15.60;99.90;;;;;;5019056;28;20533;-58
2022/09/18 09:29:44;;;;;;;6.73;1.17;;;15.40;99.90;;;;;;5020496;28;20437;-59
2022/09/18 09:32:20;;;;;;;4.03;1.50;;;15.30;99.90;;;;;;5037989;28;20476;-56
2022/09/18 09:34:54;;;;;;;2.57;1.43;;;15.20;99.90;;;;;;5037259;28;20444;-55
2022/09/18 09:37:25;;;;;;;2.13;1.10;;;15.00;99.90;;;;;;5020602;28;20536;-59
2022/09/18 09:39:56;;;;;;;1.93;0.90;;;14.70;99.90;;;;;;5019520;28;20536;-55
2022/09/18 09:42:26;;;;;;;3.50;0.90;;;14.40;99.90;;;;;;5018272;28;20441;-57
2022/09/18 09:44:59;;;;;;;1.93;1.07;;;14.80;99.90;;;;;;5017847;28;20863;-59
2022/09/18 09:47:37;;;;;;;7.23;1.27;;;14.90;99.90;;;;;;5018896;28;20977;-54
2022/09/18 09:50:23;;;;;;;2.90;0.97;;;14.80;99.90;;;;;;5023722;28;20440;-59
2022/09/18 09:52:56;;;;;;;5.10;1.33;;;14.90;99.90;;;;;;5036907;28;20440;-55
2022/09/18 09:55:27;;;;;;;4.77;1.37;;;14.90;99.90;;;;;;5036975;28;20451;-59
2022/09/18 09:58:06;;;;;;;3.40;1.17;;;14.70;99.90;;;;;;5037357;28;20504;-56
2022/09/18 10:00:42;;;;;;;1.77;0.97;;;14.70;99.90;;;;;;5037020;28;20943;-58
2022/09/18 10:03:38;;;;;;;4.40;1.43;;;14.50;99.90;;;;;;5037075;28;20471;-53
2022/09/18 10:06:14;;;;;;;3.53;0.93;;;14.30;99.90;;;;;;5035454;28;20487;-59
2022/09/18 10:08:45;;;;;;;1.53;1.00;;;14.10;99.90;;;;;;5025276;28;20429;-59
2022/09/18 10:11:14;;;;;;;1.60;1.00;;;13.90;99.90;;;;;;5017474;28;20805;-57
2022/09/18 10:13:44;;;;;;;2.03;0.93;;;13.70;99.90;;;;;;5031845;28;20539;-59
2022/09/18 10:16:17;;;;;;;1.60;1.07;;;13.80;99.90;;;;;;5036747;28;20439;-58
2022/09/18 10:18:46;;;;;;;2.70;1.00;;;14.50;99.90;;;;;;5036471;28;20460;-57
2022/09/18 10:21:14;;;;;;;4.40;1.30;;;15.20;99.90;;;;;;5033301;28;20480;-58
2022/09/18 10:23:42;;;;;;;3.00;1.10;;;16.20;99.90;;;;;;5025063;28;20456;-58
2022/09/18 10:26:14;;;;;;;1.83;1.10;;;17.10;99.90;;;;;;5030290;28;20459;-57
2022/09/18 10:28:41;;;;;;;2.90;1.30;;;17.70;99.90;;;;;;5027499;28;20467;-58
2022/09/18 10:31:11;;;;;;;1.37;1.03;;;18.30;99.90;;;;;;5036042;28;20475;-55
2022/09/18 10:33:40;;;;;;;5.13;1.00;;;18.70;99.90;;;;;;5035657;28;20452;-59
2022/09/18 10:36:21;;;;;;;1.77;0.80;;;18.10;99.90;;;;;;5035968;28;20454;-54
2022/09/18 10:38:48;;;;;;;2.23;1.23;;;17.40;99.90;;;;;;5035982;28;20537;-58
2022/09/18 10:41:28;;;;;;;3.93;1.30;;;16.90;99.90;;;;;;5035235;28;20910;-58
2022/09/18 10:44:00;;;;;;;3.53;1.27;;;16.30;99.90;;;;;;5035984;28;20452;-61
2022/09/18 10:46:29;;;;;;;2.87;1.13;;;16.00;99.90;;;;;;5035776;28;20468;-60
2022/09/18 10:49:01;;;;;;;1.93;1.00;;;16.00;99.90;;;;;;5035958;28;20802;-61
2022/09/18 10:51:28;;;;;;;2.90;1.17;;;16.40;99.90;;;;;;5035732;28;20779;-57
2022/09/18 10:54:04;;;;;;;4.83;1.10;;;17.10;99.90;;;;;;5035683;28;20499;-58
2022/09/18 10:56:32;;;;;;;2.40;1.50;;;17.40;99.90;;;;;;5036168;28;20460;-59
2022/09/18 10:59:28;;;;;;;1.20;0.80;;;17.30;99.90;;;;;;5037522;28;20515;-56
2022/09/18 11:01:56;;;;;;;5.43;1.07;;;16.90;99.90;;;;;;5033379;28;20770;-59
2022/09/18 11:04:26;;;;;;;1.80;1.00;;;16.10;99.90;;;;;;5037402;28;20444;-61
2022/09/18 11:06:53;;;;;;;3.93;1.30;;;15.50;99.90;;;;;;5037275;28;20440;-59
2022/09/18 11:09:29;;;;;;;4.17;1.67;;;15.00;99.90;;;;;;5033811;28;20973;-59
2022/09/18 11:11:56;;;;;;;3.43;1.33;;;14.80;99.90;;;;;;5022334;28;20906;-60
2022/09/18 11:14:29;;;;;;;2.17;1.10;;;14.90;99.90;;;;;;5025317;28;20480;-59
2022/09/18 11:16:58;;;;;;;2.17;0.87;;;15.20;99.90;;;;;;5021368;28;20819;-59
2022/09/18 11:19:29;;;;;;;2.53;1.20;;;15.30;99.90;;;;;;5021066;28;20460;-55
2022/09/18 11:22:00;;;;;;;1.50;0.77;;;15.20;99.90;;;;;;5023705;28;20748;-55
2022/09/18 11:24:30;;;;;;;2.90;1.23;;;15.00;99.90;;;;;;5023501;28;20544;-60
2022/09/18 11:26:59;;;;;;;2.50;1.20;;;15.10;99.90;;;;;;5019321;28;20530;-59
2022/09/18 11:29:30;;;;;;;4.63;1.03;;;15.10;99.90;;;;;;5024973;28;20453;-57
2022/09/18 11:32:02;;;;;;;2.40;1.60;;;14.70;99.90;;;;;;5024291;28;20479;-59
2022/09/18 11:34:33;;;;;;;2.80;1.00;;;14.20;99.90;;;;;;5030124;28;20475;-57
2022/09/18 11:37:02;;;;;;;2.50;0.90;;;13.60;99.90;;;;;;5024107;28;20453;-54
2022/09/18 11:39:34;;;;;;;4.40;0.77;;;13.10;99.90;;;;;;5023982;28;20447;-53
2022/09/18 11:42:07;;;;;;;3.27;1.10;;;13.00;99.90;;;;;;5029288;28;20448;-58
2022/09/18 11:44:35;;;;;;;3.30;1.00;;;12.90;99.90;;;;;;5031473;28;20478;-57
2022/09/18 11:47:27;;;;;;;1.87;0.70;;;12.90;99.90;;;;;;5017352;28;20452;-58
2022/09/18 11:50:05;;;;;;;1.77;0.90;;;13.20;99.90;;;;;;5023688;28;20799;-57
2022/09/18 11:52:38;;;;;;;5.70;1.27;;;13.50;99.90;;;;;;5026264;28;20452;-58
2022/09/18 11:55:14;;;;;;;6.20;1.10;;;13.80;99.90;;;;;;5020252;28;20473;-58
2022/09/18 11:57:43;;;;;;;3.63;1.20;;;14.20;99.90;;;;;;5017678;28;20492;-55
2022/09/18 12:00:16;;;;;;;6.63;1.43;;;14.50;99.90;;;;;;5028356;28;20452;-59
2022/09/18 12:02:51;;;;;;;1.67;1.13;;;14.90;99.90;;;;;;5022758;28;20777;-56
2022/09/18 12:05:25;;;;;;;1.90;1.17;;;15.00;99.90;;;;;;5015307;28;20428;-56
2022/09/18 12:08:01;;;;;;;7.90;1.23;;;15.00;99.90;;;;;;5015710;28;20803;-57
2022/09/18 12:10:37;;;;;;;2.50;1.30;;;15.10;99.90;;;;;;5015430;28;20452;-57
2022/09/18 12:13:28;;;;;;;3.30;1.00;;;15.20;99.90;;;;;;5014170;28;20546;-57
2022/09/18 12:16:02;;;;;;;3.50;1.03;;;15.30;99.90;;;;;;5018147;28;20437;-60
2022/09/18 12:18:34;;;;;;;7.10;1.53;;;15.40;99.90;;;;;;5018849;28;20506;-54
2022/09/18 12:21:08;;;;;;;1.47;0.70;;;15.30;99.90;;;;;;5024802;28;20471;-58
2022/09/18 12:23:35;;;;;;;1.83;1.20;;;14.90;99.90;;;;;;5039816;28;20494;-54
2022/09/18 12:26:12;;;;;;;2.80;0.80;;;14.50;99.90;;;;;;5038930;28;20444;-54
2022/09/18 12:28:45;;;;;;;2.37;1.07;;;14.10;99.90;;;;;;5039395;28;20471;-56
2022/09/18 12:31:18;;;;;;;1.90;1.23;;;13.80;99.90;;;;;;5039560;28;20443;-57
2022/09/18 12:33:56;;;;;;;1.83;1.00;;;13.50;99.90;;;;;;5039198;28;20444;-57
2022/09/18 12:36:52;;;;;;;1.77;1.00;;;13.30;99.90;;;;;;5039113;28;20454;-56
2022/09/18 12:39:37;;;;;;;1.00;0.70;;;13.20;99.90;;;;;;5036997;28;20480;-56
2022/09/18 12:42:19;;;;;;;2.17;1.00;;;13.20;99.90;;;;;;5038990;28;20878;-55
2022/09/18 12:45:34;;;;;;;3.00;0.80;;;13.60;99.90;;;;;;5038328;28;20436;-58
2022/09/18 12:48:26;;;;;;;2.90;0.90;;;13.80;99.90;;;;;;4958154;29;20452;-57
2022/09/18 12:51:10;;;;;;;2.30;1.00;;;14.10;99.90;;;;;;4954576;29;20467;-59
2022/09/18 12:53:49;;;;;;;1.47;0.90;;;14.40;99.90;;;;;;5018430;28;20890;-58
2022/09/18 12:56:30;;;;;;;4.60;1.27;;;14.50;99.90;;;;;;5035134;28;20494;-58
2022/09/18 12:59:17;;;;;;;2.33;0.83;;;14.60;99.90;;;;;;5030710;28;20472;-57
2022/09/18 13:01:48;;;;;;;1.43;0.83;;;14.80;99.90;;;;;;5021125;28;20445;-58
2022/09/18 13:04:23;;;;;;;1.33;0.80;;;15.00;99.90;;;;;;5017565;28;20445;-58
2022/09/18 13:06:57;;;;;;;2.50;0.83;;;15.10;99.90;;;;;;5017424;28;20913;-58